createdAt,value
2022-09-26T00:01:41.461Z,12.62
2022-09-26T00:04:22.889Z,12.58
2022-09-26T00:06:52.041Z,12.74
2022-09-26T00:09:20.863Z,12.75
2022-09-26T00:11:49.017Z,12.68
2022-09-26T00:14:19.739Z,12.52
2022-09-26T00:16:48.279Z,12.57
2022-09-26T00:19:18.442Z,12.38
2022-09-26T00:21:46.584Z,12.44
2022-09-26T00:24:15.549Z,12.33
2022-09-26T00:26:43.981Z,12.39
2022-09-26T00:29:13.742Z,12.27
2022-09-26T00:31:44.233Z,12.31
2022-09-26T00:34:13.730Z,12.28
2022-09-26T00:36:43.290Z,12.39
2022-09-26T00:39:13.610Z,12.33
2022-09-26T00:41:42.411Z,12.35
2022-09-26T00:44:42.302Z,12.33
2022-09-26T00:47:22.393Z,12.17
2022-09-26T00:49:54.347Z,12.16
2022-09-26T00:52:28.742Z,12.18
2022-09-26T00:55:00.988Z,12.08
2022-09-26T00:57:33.651Z,12.21
2022-09-26T01:00:05.516Z,12.17
2022-09-26T01:02:33.862Z,12.13
2022-09-26T01:05:03.947Z,11.99
2022-09-26T01:07:35.935Z,11.99
2022-09-26T01:10:05.857Z,12.01
2022-09-26T01:12:37.193Z,11.96
2022-09-26T01:15:07.358Z,12.03
2022-09-26T01:17:37.669Z,12.00
2022-09-26T01:20:24.971Z,12.06
2022-09-26T01:23:22.410Z,11.84
2022-09-26T01:26:12.464Z,11.88
2022-09-26T01:28:59.212Z,11.77
2022-09-26T01:31:38.193Z,11.81
2022-09-26T01:34:15.408Z,11.80
2022-09-26T01:37:06.385Z,11.87
2022-09-26T01:39:48.102Z,11.77
2022-09-26T01:42:27.490Z,11.75
2022-09-26T01:45:02.093Z,11.86
2022-09-26T01:47:40.640Z,11.80
2022-09-26T01:50:17.515Z,11.68
2022-09-26T01:52:52.240Z,11.64
2022-09-26T01:55:26.571Z,11.59
2022-09-26T01:58:00.065Z,11.65
2022-09-26T02:00:28.925Z,11.59
2022-09-26T02:03:01.188Z,11.68
2022-09-26T02:05:33.570Z,11.61
2022-09-26T02:08:06.882Z,11.57
2022-09-26T02:10:37.545Z,11.55
2022-09-26T02:13:10.103Z,11.54
2022-09-26T02:15:40.457Z,11.47
2022-09-26T02:18:15.967Z,11.53
2022-09-26T02:20:50.319Z,11.54
2022-09-26T02:23:18.522Z,11.50
2022-09-26T02:25:47.892Z,11.42
2022-09-26T02:28:16.725Z,11.49
2022-09-26T02:30:49.195Z,11.45
2022-09-26T02:33:19.624Z,11.47
2022-09-26T02:35:58.597Z,11.41
2022-09-26T02:38:37.184Z,11.56
2022-09-26T02:41:29.593Z,11.41
2022-09-26T02:44:12.879Z,11.35
2022-09-26T02:46:59.154Z,11.31
2022-09-26T02:49:48.728Z,11.35
2022-09-26T02:52:27.225Z,11.38
2022-09-26T02:55:04.149Z,11.36
2022-09-26T02:57:44.956Z,11.34
2022-09-26T03:00:19.880Z,11.36
2022-09-26T03:02:56.405Z,11.36
2022-09-26T03:05:30.531Z,11.38
2022-09-26T03:08:04.641Z,11.42
2022-09-26T03:10:33.891Z,11.34
2022-09-26T03:13:06.089Z,11.40
2022-09-26T03:15:37.953Z,11.45
2022-09-26T03:18:11.438Z,11.36
2022-09-26T03:20:41.722Z,11.25
2022-09-26T03:23:09.901Z,11.07
2022-09-26T03:25:39.419Z,11.08
2022-09-26T03:28:12.286Z,11.01
2022-09-26T03:30:41.157Z,10.97
2022-09-26T03:33:24.829Z,11.11
2022-09-26T03:35:54.552Z,11.21
2022-09-26T03:38:24.072Z,11.25
2022-09-26T03:41:03.123Z,11.22
2022-09-26T03:43:49.974Z,11.22
2022-09-26T03:46:18.751Z,11.26
2022-09-26T03:48:47.028Z,11.11
2022-09-26T03:51:16.757Z,11.23
2022-09-26T03:53:47.095Z,11.24
2022-09-26T03:56:19.773Z,10.97
2022-09-26T03:58:49.879Z,10.82
2022-09-26T04:01:21.590Z,11.00
2022-09-26T04:03:51.819Z,11.09
2022-09-26T04:06:22.019Z,11.15
2022-09-26T04:08:53.225Z,11.33
2022-09-26T04:11:24.543Z,11.23
2022-09-26T04:13:54.286Z,11.14
2022-09-26T04:16:27.734Z,10.99
2022-09-26T04:19:02.916Z,11.06
2022-09-26T04:21:35.483Z,10.90
2022-09-26T04:24:03.965Z,10.96
2022-09-26T04:26:32.299Z,10.95
2022-09-26T04:29:00.588Z,10.83
2022-09-26T04:32:01.075Z,10.86
2022-09-26T04:34:40.692Z,10.96
2022-09-26T04:37:12.110Z,10.92
2022-09-26T04:39:40.272Z,10.84
2022-09-26T04:42:08.458Z,10.80
2022-09-26T04:44:37.026Z,10.79
2022-09-26T04:47:05.291Z,10.88
2022-09-26T04:49:53.340Z,10.90
2022-09-26T04:52:22.829Z,10.84
2022-09-26T04:54:51.063Z,10.97
2022-09-26T04:57:20.031Z,11.12
2022-09-26T04:59:48.426Z,10.97
2022-09-26T05:02:17.397Z,10.74
2022-09-26T05:04:46.723Z,10.88
2022-09-26T05:07:16.304Z,10.88
2022-09-26T05:09:46.244Z,10.98
2022-09-26T05:12:18.216Z,11.07
2022-09-26T05:14:50.956Z,10.97
2022-09-26T05:17:20.850Z,11.01
2022-09-26T05:19:49.152Z,11.02
2022-09-26T05:22:31.420Z,10.97
2022-09-26T05:25:19.038Z,10.91
2022-09-26T05:27:53.402Z,10.88
2022-09-26T05:30:22.071Z,10.90
2022-09-26T05:32:50.412Z,11.03
2022-09-26T05:35:18.870Z,10.84
2022-09-26T05:37:47.256Z,10.93
2022-09-26T05:40:34.352Z,11.18
2022-09-26T05:43:02.975Z,11.07
2022-09-26T05:45:32.702Z,10.94
2022-09-26T05:48:03.293Z,11.08
2022-09-26T05:50:31.637Z,11.12
2022-09-26T05:53:00.746Z,11.28
2022-09-26T05:55:31.198Z,11.17
2022-09-26T05:58:19.193Z,11.11
2022-09-26T06:01:20.000Z,11.34
2022-09-26T06:03:56.073Z,11.27
2022-09-26T06:06:29.784Z,11.35
2022-09-26T06:09:07.586Z,11.32
2022-09-26T06:11:57.348Z,11.34
2022-09-26T06:14:26.462Z,11.19
2022-09-26T06:16:55.224Z,11.31
2022-09-26T06:19:23.670Z,11.30
2022-09-26T06:21:51.890Z,11.29
2022-09-26T06:24:20.800Z,11.38
2022-09-26T06:26:52.760Z,11.49
2022-09-26T06:29:22.208Z,11.63
2022-09-26T06:31:50.526Z,11.51
2022-09-26T06:34:37.481Z,11.56
2022-09-26T06:37:24.425Z,11.67
2022-09-26T06:39:55.804Z,11.63
2022-09-26T06:42:26.719Z,11.86
2022-09-26T06:45:15.135Z,11.91
2022-09-26T06:48:02.507Z,12.14
2022-09-26T06:50:37.405Z,12.24
2022-09-26T06:53:12.926Z,12.18
2022-09-26T06:55:41.070Z,12.43
2022-09-26T06:58:09.419Z,12.46
2022-09-26T07:00:52.953Z,12.44
2022-09-26T07:03:46.270Z,12.45
2022-09-26T07:06:32.944Z,12.49
2022-09-26T07:09:05.481Z,12.79
2022-09-26T07:12:13.982Z,12.74
2022-09-26T07:14:44.524Z,12.94
2022-09-26T07:17:33.093Z,12.76
2022-09-26T07:20:12.285Z,12.70
2022-09-26T07:23:19.131Z,13.02
2022-09-26T07:25:48.410Z,13.30
2022-09-26T07:28:16.705Z,13.20
2022-09-26T07:30:48.021Z,13.61
2022-09-26T07:33:35.989Z,13.71
2022-09-26T07:36:10.353Z,13.59
2022-09-26T07:38:38.625Z,13.46
2022-09-26T07:41:10.759Z,13.71
2022-09-26T07:44:41.216Z,13.56
2022-09-26T07:46:44.798Z,13.81
2022-09-26T07:49:32.131Z,13.91
2022-09-26T07:52:20.646Z,13.83
2022-09-26T07:55:08.117Z,13.95
2022-09-26T07:57:49.943Z,13.99
2022-09-26T08:00:35.622Z,13.93
2022-09-26T08:03:13.939Z,13.66
2022-09-26T08:05:45.100Z,13.94
2022-09-26T08:08:13.360Z,14.04
2022-09-26T08:11:03.740Z,14.08
2022-09-26T08:13:49.066Z,14.36
2022-09-26T08:16:27.107Z,14.42
2022-09-26T08:19:02.297Z,14.46
2022-09-26T08:21:34.102Z,14.35
2022-09-26T08:24:02.793Z,14.38
2022-09-26T08:27:02.063Z,14.75
2022-09-26T08:29:35.013Z,14.98
2022-09-26T08:32:04.287Z,14.78
2022-09-26T08:34:35.397Z,14.51
2022-09-26T08:37:31.580Z,15.06
2022-09-26T08:40:19.622Z,14.71
2022-09-26T08:43:11.604Z,14.74
2022-09-26T08:46:32.697Z,15.15
2022-09-26T08:49:44.410Z,15.60
2022-09-26T08:52:26.973Z,15.45
2022-09-26T08:54:59.053Z,15.96
2022-09-26T08:57:35.045Z,16.12
2022-09-26T09:00:10.074Z,15.98
2022-09-26T09:02:43.819Z,15.60
2022-09-26T09:05:20.314Z,15.28
2022-09-26T09:07:51.701Z,15.65
2022-09-26T09:10:37.553Z,15.79
2022-09-26T09:13:33.660Z,15.98
2022-09-26T09:16:27.578Z,15.38
2022-09-26T09:19:15.268Z,15.37
2022-09-26T09:22:02.445Z,15.18
2022-09-26T09:24:56.861Z,15.32
2022-09-26T09:28:02.674Z,15.11
2022-09-26T09:30:37.796Z,14.69
2022-09-26T09:33:41.868Z,14.38
2022-09-26T09:36:42.993Z,14.53
2022-09-26T09:39:46.404Z,14.94
2022-09-26T09:42:27.056Z,15.61
2022-09-26T09:45:01.567Z,15.77
2022-09-26T09:47:38.687Z,16.01
2022-09-26T09:50:15.481Z,16.01
2022-09-26T09:52:54.974Z,16.34
2022-09-26T09:55:37.646Z,16.54
2022-09-26T09:58:29.816Z,16.90
2022-09-26T10:01:09.809Z,17.06
2022-09-26T10:03:44.216Z,17.06
2022-09-26T10:06:45.214Z,16.57
2022-09-26T10:09:35.559Z,16.00
2022-09-26T10:12:30.550Z,16.15
2022-09-26T10:15:20.582Z,16.68
2022-09-26T10:18:27.006Z,16.84
2022-09-26T10:21:16.368Z,16.68
2022-09-26T10:23:48.965Z,16.60
2022-09-26T10:26:35.417Z,16.22
2022-09-26T10:29:08.737Z,16.17
2022-09-26T10:31:42.920Z,16.47
2022-09-26T10:34:27.539Z,16.18
2022-09-26T10:36:56.196Z,16.21
2022-09-26T10:39:46.297Z,16.65
2022-09-26T10:42:16.857Z,16.76
2022-09-26T10:44:46.359Z,16.94
2022-09-26T10:47:25.629Z,17.27
2022-09-26T10:50:33.392Z,17.31
2022-09-26T10:53:22.953Z,17.28
2022-09-26T10:55:57.412Z,16.88
2022-09-26T10:58:29.872Z,16.53
2022-09-26T11:01:04.835Z,16.30
2022-09-26T11:03:42.279Z,16.31
2022-09-26T11:06:30.229Z,16.18
2022-09-26T11:09:21.620Z,16.06
2022-09-26T11:12:23.953Z,15.77
2022-09-26T11:14:56.897Z,15.64
2022-09-26T11:17:43.347Z,15.61
2022-09-26T11:20:20.972Z,15.82
2022-09-26T11:23:00.547Z,15.75
2022-09-26T11:25:32.001Z,15.86
2022-09-26T11:28:07.084Z,15.75
2022-09-26T11:31:05.482Z,15.86
2022-09-26T11:33:36.235Z,15.75
2022-09-26T11:37:04.999Z,16.57
2022-09-26T11:39:51.409Z,16.86
2022-09-26T11:42:32.125Z,16.99
2022-09-26T11:45:03.770Z,16.93
2022-09-26T11:48:13.551Z,16.83
2022-09-26T11:51:15.223Z,16.66
2022-09-26T11:54:06.742Z,16.29
2022-09-26T11:56:51.357Z,16.57
2022-09-26T11:59:43.672Z,16.50
2022-09-26T12:02:34.195Z,16.35
2022-09-26T12:05:15.815Z,16.35
2022-09-26T12:07:53.485Z,16.37
2022-09-26T12:10:31.617Z,16.15
2022-09-26T12:13:19.124Z,16.15
2022-09-26T12:15:55.993Z,16.12
2022-09-26T12:18:35.299Z,16.67
2022-09-26T12:21:17.126Z,17.00
2022-09-26T12:23:52.681Z,17.26
2022-09-26T12:26:28.009Z,17.41
2022-09-26T12:29:23.525Z,17.54
2022-09-26T12:32:07.455Z,17.76
2022-09-26T12:35:02.322Z,17.62
2022-09-26T12:37:58.284Z,17.66
2022-09-26T12:40:37.001Z,17.58
2022-09-26T12:43:28.202Z,17.45
2022-09-26T12:46:07.514Z,17.84
2022-09-26T12:48:47.205Z,17.32
2022-09-26T12:51:23.914Z,17.22
2022-09-26T12:54:19.990Z,17.24
2022-09-26T12:56:52.506Z,17.41
2022-09-26T12:59:37.802Z,17.40
2022-09-26T13:02:33.164Z,17.33
2022-09-26T13:05:52.265Z,16.99
2022-09-26T13:08:28.220Z,16.98
2022-09-26T13:11:10.383Z,16.74
2022-09-26T13:13:54.144Z,16.58
2022-09-26T13:16:34.089Z,16.62
2022-09-26T13:19:15.341Z,16.84
2022-09-26T13:21:48.246Z,16.96
2022-09-26T13:24:22.190Z,16.56
2022-09-26T13:26:54.686Z,16.67
2022-09-26T13:29:27.875Z,16.54
2022-09-26T13:32:04.844Z,16.22
2022-09-26T13:34:39.566Z,16.27
2022-09-26T13:37:20.682Z,16.06
2022-09-26T13:39:53.266Z,16.13
2022-09-26T13:42:30.694Z,15.96
2022-09-26T13:45:08.874Z,15.87
2022-09-26T13:47:47.437Z,16.04
2022-09-26T13:50:24.948Z,16.00
2022-09-26T13:53:05.482Z,16.10
2022-09-26T13:55:34.413Z,16.09
2022-09-26T13:58:07.303Z,16.13
2022-09-26T14:00:41.525Z,16.07
2022-09-26T14:03:37.207Z,15.93
2022-09-26T14:06:28.813Z,16.00
2022-09-26T14:09:28.668Z,15.93
2022-09-26T14:12:21.683Z,16.08
2022-09-26T14:15:16.172Z,15.97
2022-09-26T14:18:09.890Z,15.82
2022-09-26T14:20:55.111Z,15.89
2022-09-26T14:23:40.571Z,15.94
2022-09-26T14:26:13.282Z,15.82
2022-09-26T14:28:50.495Z,15.95
2022-09-26T14:31:38.623Z,16.19
2022-09-26T14:34:17.513Z,16.55
2022-09-26T14:36:47.408Z,16.62
2022-09-26T14:39:31.901Z,16.85
2022-09-26T14:42:08.450Z,16.71
2022-09-26T14:44:37.734Z,16.20
2022-09-26T14:47:15.150Z,16.05
2022-09-26T14:49:44.475Z,15.98
2022-09-26T14:52:20.597Z,15.97
2022-09-26T14:54:50.208Z,15.94
2022-09-26T14:57:24.712Z,15.93
2022-09-26T14:59:52.973Z,15.81
2022-09-26T15:02:39.251Z,15.66
2022-09-26T15:05:21.907Z,15.55
2022-09-26T15:07:51.538Z,15.45
2022-09-26T15:10:25.642Z,15.41
2022-09-26T15:13:00.056Z,15.42
2022-09-26T15:15:39.897Z,15.51
2022-09-26T15:18:14.794Z,15.36
2022-09-26T15:20:48.909Z,15.53
2022-09-26T15:23:27.818Z,15.40
2022-09-26T15:26:02.683Z,15.31
2022-09-26T15:28:34.780Z,15.31
2022-09-26T15:31:20.929Z,15.41
2022-09-26T15:33:55.580Z,15.56
2022-09-26T15:36:23.922Z,15.43
2022-09-26T15:38:52.578Z,15.41
2022-09-26T15:41:36.107Z,15.54
2022-09-26T15:44:07.848Z,15.46
2022-09-26T15:46:36.576Z,15.55
2022-09-26T15:49:13.974Z,15.52
2022-09-26T15:51:44.192Z,15.40
2022-09-26T15:54:21.717Z,15.50
2022-09-26T15:56:52.862Z,15.32
2022-09-26T15:59:25.604Z,15.16
2022-09-26T16:01:54.392Z,15.07
2022-09-26T16:04:27.128Z,15.10
2022-09-26T16:06:58.928Z,15.24
2022-09-26T16:09:32.789Z,15.15
2022-09-26T16:12:05.876Z,15.01
2022-09-26T16:14:40.463Z,14.90
2022-09-26T16:17:18.748Z,14.83
2022-09-26T16:19:49.158Z,14.75
2022-09-26T16:22:45.343Z,14.68
2022-09-26T16:25:26.757Z,14.71
2022-09-26T16:28:03.934Z,14.58
2022-09-26T16:30:42.169Z,14.55
2022-09-26T16:33:34.879Z,14.49
2022-09-26T16:36:05.942Z,14.51
2022-09-26T16:38:35.598Z,14.51
2022-09-26T16:41:08.773Z,14.56
2022-09-26T16:43:39.745Z,14.48
2022-09-26T16:46:11.631Z,14.44
2022-09-26T16:48:42.467Z,14.46
2022-09-26T16:51:17.152Z,14.35
2022-09-26T16:53:46.637Z,14.29
2022-09-26T16:56:18.174Z,14.43
2022-09-26T16:58:51.397Z,14.50
2022-09-26T17:01:37.855Z,14.32
2022-09-26T17:04:11.692Z,14.27
2022-09-26T17:06:39.917Z,14.22
2022-09-26T17:09:16.776Z,14.22
2022-09-26T17:11:47.719Z,14.10
2022-09-26T17:14:19.571Z,13.96
2022-09-26T17:16:50.499Z,13.98
2022-09-26T17:19:19.244Z,13.80
2022-09-26T17:21:49.130Z,13.86
2022-09-26T17:24:21.314Z,13.61
2022-09-26T17:26:54.389Z,13.53
2022-09-26T17:29:27.436Z,13.61
2022-09-26T17:31:57.531Z,13.41
2022-09-26T17:34:28.915Z,13.37
2022-09-26T17:36:59.229Z,13.34
2022-09-26T17:39:29.281Z,13.21
2022-09-26T17:41:59.153Z,13.06
2022-09-26T17:44:28.726Z,13.13
2022-09-26T17:46:57.740Z,12.91
2022-09-26T17:49:29.165Z,12.92
2022-09-26T17:51:58.455Z,12.83
2022-09-26T17:54:31.053Z,12.77
2022-09-26T17:57:01.007Z,12.70
2022-09-26T17:59:30.539Z,12.58
2022-09-26T18:02:02.716Z,12.28
2022-09-26T18:04:31.499Z,12.43
2022-09-26T18:07:04.382Z,12.35
2022-09-26T18:09:36.099Z,12.34
2022-09-26T18:12:05.472Z,12.26
2022-09-26T18:14:35.449Z,12.28
2022-09-26T18:17:04.388Z,12.30
2022-09-26T18:19:32.516Z,12.15
2022-09-26T18:22:00.656Z,12.09
2022-09-26T18:24:30.552Z,12.01
2022-09-26T18:27:03.846Z,12.04
2022-09-26T18:29:37.124Z,11.91
2022-09-26T18:32:07.640Z,11.79
2022-09-26T18:34:35.766Z,11.74
2022-09-26T18:37:04.172Z,11.69
2022-09-26T18:39:32.625Z,11.97
2022-09-26T18:42:03.584Z,11.85
2022-09-26T18:44:34.976Z,11.93
2022-09-26T18:47:07.877Z,11.72
2022-09-26T18:49:38.072Z,11.87
2022-09-26T18:52:08.643Z,11.62
2022-09-26T18:54:36.793Z,11.63
2022-09-26T18:57:22.392Z,11.62
2022-09-26T18:59:50.530Z,11.72
2022-09-26T19:02:24.470Z,11.59
2022-09-26T19:04:54.554Z,11.56
2022-09-26T19:07:23.103Z,11.49
2022-09-26T19:09:51.413Z,11.61
2022-09-26T19:12:20.226Z,11.65
2022-09-26T19:14:48.356Z,11.52
2022-09-26T19:17:16.511Z,11.54
2022-09-26T19:19:45.984Z,11.47
2022-09-26T19:22:17.191Z,11.49
2022-09-26T19:24:49.840Z,11.42
2022-09-26T19:27:20.699Z,11.41
2022-09-26T19:29:53.646Z,11.32
2022-09-26T19:32:24.433Z,11.14
2022-09-26T19:34:57.706Z,11.35
2022-09-26T19:37:25.870Z,11.35
2022-09-26T19:39:54.240Z,11.20
2022-09-26T19:42:22.357Z,11.23
2022-09-26T19:44:51.305Z,11.10
2022-09-26T19:47:22.405Z,11.07
2022-09-26T19:49:53.141Z,10.92
2022-09-26T19:52:23.107Z,10.87
2022-09-26T19:54:51.229Z,10.76
2022-09-26T19:57:21.005Z,10.93
2022-09-26T19:59:49.745Z,10.92
2022-09-26T20:02:20.192Z,10.77
2022-09-26T20:04:49.017Z,10.98
2022-09-26T20:07:18.913Z,10.89
2022-09-26T20:09:48.669Z,10.90
2022-09-26T20:12:16.944Z,10.88
2022-09-26T20:14:45.089Z,10.85
2022-09-26T20:17:21.076Z,10.67
2022-09-26T20:19:50.195Z,10.73
2022-09-26T20:22:21.780Z,10.61
2022-09-26T20:24:54.888Z,10.66
2022-09-26T20:27:25.675Z,10.71
2022-09-26T20:30:11.735Z,10.75
2022-09-26T20:32:41.446Z,10.60
2022-09-26T20:35:14.241Z,10.66
2022-09-26T20:37:43.109Z,10.50
2022-09-26T20:40:17.498Z,10.55
2022-09-26T20:42:50.096Z,10.57
2022-09-26T20:45:21.569Z,10.61
2022-09-26T20:47:49.700Z,10.55
2022-09-26T20:50:20.403Z,10.52
2022-09-26T20:52:48.588Z,10.46
2022-09-26T20:55:19.632Z,10.49
2022-09-26T20:57:48.012Z,10.59
2022-09-26T21:00:17.827Z,10.66
2022-09-26T21:02:47.741Z,10.50
2022-09-26T21:05:19.004Z,10.44
2022-09-26T21:07:47.267Z,10.39
2022-09-26T21:10:25.157Z,10.43
2022-09-26T21:12:53.818Z,10.52
2022-09-26T21:15:23.270Z,10.40
2022-09-26T21:17:52.579Z,10.57
2022-09-26T21:20:25.858Z,10.32
2022-09-26T21:23:01.691Z,10.33
2022-09-26T21:25:32.651Z,10.29
2022-09-26T21:28:03.921Z,10.51
2022-09-26T21:30:32.626Z,10.48
2022-09-26T21:33:01.658Z,10.57
2022-09-26T21:35:31.873Z,10.56
2022-09-26T21:38:01.832Z,10.58
2022-09-26T21:40:33.690Z,10.68
2022-09-26T21:43:08.577Z,10.69
2022-09-26T21:45:36.691Z,10.72
2022-09-26T21:48:05.142Z,10.71
2022-09-26T21:50:33.491Z,10.66
2022-09-26T21:53:05.861Z,10.92
2022-09-26T21:55:38.676Z,10.88
2022-09-26T21:58:12.994Z,10.87
2022-09-26T22:00:41.605Z,10.79
2022-09-26T22:03:10.002Z,10.97
2022-09-26T22:05:38.258Z,11.00
2022-09-26T22:08:06.403Z,10.87
2022-09-26T22:10:36.864Z,11.01
2022-09-26T22:13:05.424Z,10.89
2022-09-26T22:15:33.705Z,11.01
2022-09-26T22:18:01.839Z,11.04
2022-09-26T22:20:30.013Z,11.13
2022-09-26T22:22:58.188Z,10.96
2022-09-26T22:25:26.385Z,10.95
2022-09-26T22:27:55.875Z,10.95
2022-09-26T22:30:24.076Z,10.90
2022-09-26T22:32:52.524Z,10.95
2022-09-26T22:35:20.733Z,11.16
2022-09-26T22:37:48.927Z,11.05
2022-09-26T22:40:17.257Z,11.02
2022-09-26T22:42:45.429Z,11.01
2022-09-26T22:45:15.028Z,10.86
2022-09-26T22:47:43.160Z,10.89
2022-09-26T22:50:11.527Z,10.92
2022-09-26T22:52:40.300Z,10.90
2022-09-26T22:55:09.100Z,10.78
2022-09-26T22:57:37.668Z,10.75
2022-09-26T23:00:07.011Z,10.81
2022-09-26T23:02:36.704Z,10.72
2022-09-26T23:05:05.523Z,10.62
2022-09-26T23:07:33.646Z,10.67
2022-09-26T23:10:01.764Z,10.70
2022-09-26T23:12:31.673Z,10.76
2022-09-26T23:14:59.801Z,10.74
2022-09-26T23:17:28.221Z,10.56
2022-09-26T23:19:58.179Z,10.62
2022-09-26T23:22:26.350Z,10.72
2022-09-26T23:24:54.494Z,10.59
2022-09-26T23:27:22.666Z,10.59
2022-09-26T23:29:50.792Z,10.75
2022-09-26T23:32:18.922Z,10.63
2022-09-26T23:34:47.413Z,10.85
2022-09-26T23:37:17.192Z,10.70
2022-09-26T23:39:45.318Z,10.54
2022-09-26T23:42:13.434Z,10.72
2022-09-26T23:44:41.596Z,10.70
2022-09-26T23:47:09.737Z,10.51
2022-09-26T23:49:38.011Z,10.58
2022-09-26T23:52:06.126Z,10.48
2022-09-26T23:54:35.582Z,10.51
2022-09-26T23:57:03.691Z,10.52
2022-09-26T23:59:31.847Z,10.67
